sensor_id;sensor_type;location;lat;lon;timestamp;P1;durP1;ratioP1;P2;durP2;ratioP2
28822;SDS011;15961;54.678;9.110;2023-02-01T00:02:05;63.10;;;7.70;;
28822;SDS011;15961;54.678;9.110;2023-02-01T00:04:30;73.38;;;10.00;;
28822;SDS011;15961;54.678;9.110;2023-02-01T00:06:56;59.00;;;6.75;;
28822;SDS011;15961;54.678;9.110;2023-02-01T00:09:21;57.67;;;9.38;;
28822;SDS011;15961;54.678;9.110;2023-02-01T00:11:47;52.85;;;8.75;;
28822;SDS011;15961;54.678;9.110;2023-02-01T00:14:12;53.92;;;8.77;;
28822;SDS011;15961;54.678;9.110;2023-02-01T00:16:38;47.42;;;7.88;;
28822;SDS011;15961;54.678;9.110;2023-02-01T00:19:06;53.55;;;7.50;;
28822;SDS011;15961;54.678;9.110;2023-02-01T00:21:36;61.50;;;8.13;;
28822;SDS011;15961;54.678;9.110;2023-02-01T00:24:02;93.15;;;9.82;;
28822;SDS011;15961;54.678;9.110;2023-02-01T00:26:32;75.55;;;9.02;;
28822;SDS011;15961;54.678;9.110;2023-02-01T00:29:00;64.43;;;7.60;;
28822;SDS011;15961;54.678;9.110;2023-02-01T00:31:26;67.18;;;10.77;;
28822;SDS011;15961;54.678;9.110;2023-02-01T00:33:52;84.38;;;10.15;;
28822;SDS011;15961;54.678;9.110;2023-02-01T00:36:18;86.88;;;10.20;;
28822;SDS011;15961;54.678;9.110;2023-02-01T00:38:43;74.88;;;9.18;;
28822;SDS011;15961;54.678;9.110;2023-02-01T00:41:13;81.88;;;10.93;;
28822;SDS011;15961;54.678;9.110;2023-02-01T00:43:44;104.70;;;12.93;;
28822;SDS011;15961;54.678;9.110;2023-02-01T00:46:11;82.78;;;11.02;;
28822;SDS011;15961;54.678;9.110;2023-02-01T00:48:38;82.00;;;11.20;;
28822;SDS011;15961;54.678;9.110;2023-02-01T00:51:10;68.30;;;9.63;;
28822;SDS011;15961;54.678;9.110;2023-02-01T00:53:37;77.95;;;10.73;;
28822;SDS011;15961;54.678;9.110;2023-02-01T00:56:03;89.18;;;12.10;;
28822;SDS011;15961;54.678;9.110;2023-02-01T00:58:30;67.28;;;10.68;;
28822;SDS011;15961;54.678;9.110;2023-02-01T01:03:40;121.68;;;22.95;;
28822;SDS011;15961;54.678;9.110;2023-02-01T01:06:08;82.72;;;14.80;;
28822;SDS011;15961;54.678;9.110;2023-02-01T01:08:35;75.22;;;12.80;;
28822;SDS011;15961;54.678;9.110;2023-02-01T01:11:08;97.10;;;13.13;;
28822;SDS011;15961;54.678;9.110;2023-02-01T01:13:36;71.28;;;9.80;;
28822;SDS011;15961;54.678;9.110;2023-02-01T01:16:02;76.75;;;10.38;;
28822;SDS011;15961;54.678;9.110;2023-02-01T01:18:30;80.03;;;10.07;;
28822;SDS011;15961;54.678;9.110;2023-02-01T01:20:57;76.72;;;11.00;;
28822;SDS011;15961;54.678;9.110;2023-02-01T01:23:24;95.28;;;10.02;;
28822;SDS011;15961;54.678;9.110;2023-02-01T01:25:49;74.25;;;9.55;;
28822;SDS011;15961;54.678;9.110;2023-02-01T01:28:15;68.63;;;10.57;;
28822;SDS011;15961;54.678;9.110;2023-02-01T01:30:40;66.85;;;10.15;;
28822;SDS011;15961;54.678;9.110;2023-02-01T01:33:06;85.28;;;10.75;;
28822;SDS011;15961;54.678;9.110;2023-02-01T01:35:32;92.32;;;10.30;;
28822;SDS011;15961;54.678;9.110;2023-02-01T01:37:58;78.57;;;9.70;;
28822;SDS011;15961;54.678;9.110;2023-02-01T01:40:24;78.82;;;10.43;;
28822;SDS011;15961;54.678;9.110;2023-02-01T01:42:51;73.05;;;10.52;;
28822;SDS011;15961;54.678;9.110;2023-02-01T01:45:29;75.47;;;9.23;;
28822;SDS011;15961;54.678;9.110;2023-02-01T01:48:01;61.55;;;9.23;;
28822;SDS011;15961;54.678;9.110;2023-02-01T01:50:40;64.90;;;9.48;;
28822;SDS011;15961;54.678;9.110;2023-02-01T01:53:13;97.05;;;9.50;;
28822;SDS011;15961;54.678;9.110;2023-02-01T01:55:45;54.28;;;9.70;;
28822;SDS011;15961;54.678;9.110;2023-02-01T01:58:18;64.22;;;9.65;;
28822;SDS011;15961;54.678;9.110;2023-02-01T02:00:46;88.95;;;9.80;;
28822;SDS011;15961;54.678;9.110;2023-02-01T02:03:17;88.47;;;10.43;;
28822;SDS011;15961;54.678;9.110;2023-02-01T02:05:46;87.63;;;10.65;;
28822;SDS011;15961;54.678;9.110;2023-02-01T02:08:14;68.40;;;9.52;;
28822;SDS011;15961;54.678;9.110;2023-02-01T02:10:40;61.70;;;9.95;;
28822;SDS011;15961;54.678;9.110;2023-02-01T02:13:24;64.88;;;9.57;;
28822;SDS011;15961;54.678;9.110;2023-02-01T02:16:18;77.32;;;9.65;;
28822;SDS011;15961;54.678;9.110;2023-02-01T02:22:02;67.97;;;10.20;;
28822;SDS011;15961;54.678;9.110;2023-02-01T02:30:22;88.43;;;11.55;;
28822;SDS011;15961;54.678;9.110;2023-02-01T02:36:02;85.05;;;11.82;;
28822;SDS011;15961;54.678;9.110;2023-02-01T02:47:33;91.15;;;12.10;;
28822;SDS011;15961;54.678;9.110;2023-02-01T02:50:12;80.63;;;10.73;;
28822;SDS011;15961;54.678;9.110;2023-02-01T02:53:11;67.00;;;9.48;;
28822;SDS011;15961;54.678;9.110;2023-02-01T02:56:03;81.70;;;9.23;;
28822;SDS011;15961;54.678;9.110;2023-02-01T02:58:49;66.55;;;10.10;;
28822;SDS011;15961;54.678;9.110;2023-02-01T03:01:33;93.85;;;14.65;;
28822;SDS011;15961;54.678;9.110;2023-02-01T03:04:18;79.45;;;12.40;;
28822;SDS011;15961;54.678;9.110;2023-02-01T03:06:45;71.38;;;9.95;;
28822;SDS011;15961;54.678;9.110;2023-02-01T03:09:19;67.18;;;9.02;;
28822;SDS011;15961;54.678;9.110;2023-02-01T03:11:52;93.15;;;12.73;;
28822;SDS011;15961;54.678;9.110;2023-02-01T03:14:42;66.95;;;10.68;;
28822;SDS011;15961;54.678;9.110;2023-02-01T03:17:14;73.65;;;9.63;;
28822;SDS011;15961;54.678;9.110;2023-02-01T03:19:45;84.63;;;11.23;;
28822;SDS011;15961;54.678;9.110;2023-02-01T03:22:17;67.68;;;8.88;;
28822;SDS011;15961;54.678;9.110;2023-02-01T03:25:29;74.03;;;11.18;;
28822;SDS011;15961;54.678;9.110;2023-02-01T03:27:41;69.47;;;11.90;;
28822;SDS011;15961;54.678;9.110;2023-02-01T03:32:42;59.35;;;8.27;;
28822;SDS011;15961;54.678;9.110;2023-02-01T03:43:58;54.05;;;8.30;;
28822;SDS011;15961;54.678;9.110;2023-02-01T03:46:32;70.82;;;9.57;;
28822;SDS011;15961;54.678;9.110;2023-02-01T03:49:09;62.83;;;10.57;;
28822;SDS011;15961;54.678;9.110;2023-02-01T03:51:38;69.70;;;9.20;;
28822;SDS011;15961;54.678;9.110;2023-02-01T03:54:06;72.68;;;8.40;;
28822;SDS011;15961;54.678;9.110;2023-02-01T03:56:35;65.57;;;8.15;;
28822;SDS011;15961;54.678;9.110;2023-02-01T03:59:02;68.18;;;7.88;;
28822;SDS011;15961;54.678;9.110;2023-02-01T04:01:28;74.88;;;9.88;;
28822;SDS011;15961;54.678;9.110;2023-02-01T04:03:56;66.43;;;8.55;;
28822;SDS011;15961;54.678;9.110;2023-02-01T04:06:23;81.18;;;11.00;;
28822;SDS011;15961;54.678;9.110;2023-02-01T04:08:49;60.90;;;9.07;;
28822;SDS011;15961;54.678;9.110;2023-02-01T04:11:15;75.85;;;9.50;;
28822;SDS011;15961;54.678;9.110;2023-02-01T04:13:41;64.38;;;9.45;;
28822;SDS011;15961;54.678;9.110;2023-02-01T04:16:07;72.00;;;9.07;;
28822;SDS011;15961;54.678;9.110;2023-02-01T04:18:32;81.35;;;9.65;;
28822;SDS011;15961;54.678;9.110;2023-02-01T04:20:58;63.70;;;8.10;;
28822;SDS011;15961;54.678;9.110;2023-02-01T04:23:23;55.15;;;7.28;;
28822;SDS011;15961;54.678;9.110;2023-02-01T04:25:49;47.58;;;6.57;;
28822;SDS011;15961;54.678;9.110;2023-02-01T04:28:14;56.58;;;6.85;;
28822;SDS011;15961;54.678;9.110;2023-02-01T04:30:40;47.35;;;7.28;;
28822;SDS011;15961;54.678;9.110;2023-02-01T04:33:05;60.83;;;9.07;;
28822;SDS011;15961;54.678;9.110;2023-02-01T04:35:31;47.70;;;6.60;;
28822;SDS011;15961;54.678;9.110;2023-02-01T04:37:56;49.38;;;6.10;;
28822;SDS011;15961;54.678;9.110;2023-02-01T04:40:22;46.15;;;6.57;;
28822;SDS011;15961;54.678;9.110;2023-02-01T04:42:47;36.97;;;6.47;;
28822;SDS011;15961;54.678;9.110;2023-02-01T04:45:13;47.53;;;6.00;;
28822;SDS011;15961;54.678;9.110;2023-02-01T04:47:39;58.67;;;6.95;;
28822;SDS011;15961;54.678;9.110;2023-02-01T04:50:04;39.33;;;6.07;;
28822;SDS011;15961;54.678;9.110;2023-02-01T04:52:31;58.25;;;6.43;;
28822;SDS011;15961;54.678;9.110;2023-02-01T04:54:56;52.60;;;6.03;;
28822;SDS011;15961;54.678;9.110;2023-02-01T04:57:24;51.05;;;6.32;;
28822;SDS011;15961;54.678;9.110;2023-02-01T04:59:50;51.88;;;7.07;;
28822;SDS011;15961;54.678;9.110;2023-02-01T05:02:16;38.13;;;6.10;;
28822;SDS011;15961;54.678;9.110;2023-02-01T05:04:41;47.42;;;7.60;;
28822;SDS011;15961;54.678;9.110;2023-02-01T05:07:07;46.83;;;6.18;;
28822;SDS011;15961;54.678;9.110;2023-02-01T05:09:32;40.25;;;6.38;;
28822;SDS011;15961;54.678;9.110;2023-02-01T05:11:58;36.25;;;5.53;;
28822;SDS011;15961;54.678;9.110;2023-02-01T05:17:07;49.08;;;6.60;;
28822;SDS011;15961;54.678;9.110;2023-02-01T05:19:33;49.10;;;6.40;;
28822;SDS011;15961;54.678;9.110;2023-02-01T05:21:58;55.17;;;10.25;;
28822;SDS011;15961;54.678;9.110;2023-02-01T05:24:24;51.10;;;6.63;;
28822;SDS011;15961;54.678;9.110;2023-02-01T05:26:49;53.17;;;10.48;;
28822;SDS011;15961;54.678;9.110;2023-02-01T05:29:15;50.80;;;6.70;;
28822;SDS011;15961;54.678;9.110;2023-02-01T05:31:43;46.47;;;7.55;;
28822;SDS011;15961;54.678;9.110;2023-02-01T05:34:10;61.20;;;8.25;;
28822;SDS011;15961;54.678;9.110;2023-02-01T05:36:36;66.07;;;10.77;;
28822;SDS011;15961;54.678;9.110;2023-02-01T05:39:02;75.45;;;9.90;;
28822;SDS011;15961;54.678;9.110;2023-02-01T05:41:28;67.80;;;7.25;;
28822;SDS011;15961;54.678;9.110;2023-02-01T05:43:53;54.45;;;7.63;;
28822;SDS011;15961;54.678;9.110;2023-02-01T05:46:19;63.50;;;8.50;;
28822;SDS011;15961;54.678;9.110;2023-02-01T05:48:44;87.57;;;10.05;;
28822;SDS011;15961;54.678;9.110;2023-02-01T05:51:10;70.18;;;9.25;;
28822;SDS011;15961;54.678;9.110;2023-02-01T05:53:36;57.55;;;8.23;;
28822;SDS011;15961;54.678;9.110;2023-02-01T05:56:01;57.15;;;8.15;;
28822;SDS011;15961;54.678;9.110;2023-02-01T05:58:28;72.03;;;8.65;;
28822;SDS011;15961;54.678;9.110;2023-02-01T06:00:54;53.47;;;8.55;;
28822;SDS011;15961;54.678;9.110;2023-02-01T06:03:19;74.22;;;8.27;;
28822;SDS011;15961;54.678;9.110;2023-02-01T06:05:46;70.65;;;8.73;;
28822;SDS011;15961;54.678;9.110;2023-02-01T06:08:12;66.32;;;7.75;;
28822;SDS011;15961;54.678;9.110;2023-02-01T06:10:38;62.33;;;7.95;;
28822;SDS011;15961;54.678;9.110;2023-02-01T06:13:04;66.75;;;8.75;;
28822;SDS011;15961;54.678;9.110;2023-02-01T06:15:30;61.38;;;8.30;;
28822;SDS011;15961;54.678;9.110;2023-02-01T06:17:57;88.97;;;8.75;;
28822;SDS011;15961;54.678;9.110;2023-02-01T06:20:22;56.55;;;8.43;;
28822;SDS011;15961;54.678;9.110;2023-02-01T06:22:48;68.70;;;8.43;;
28822;SDS011;15961;54.678;9.110;2023-02-01T06:25:14;75.57;;;11.35;;
28822;SDS011;15961;54.678;9.110;2023-02-01T06:27:41;70.38;;;12.77;;
28822;SDS011;15961;54.678;9.110;2023-02-01T06:30:09;53.42;;;9.05;;
28822;SDS011;15961;54.678;9.110;2023-02-01T06:32:38;63.50;;;7.85;;
28822;SDS011;15961;54.678;9.110;2023-02-01T06:35:05;81.53;;;11.30;;
28822;SDS011;15961;54.678;9.110;2023-02-01T06:37:41;74.72;;;8.20;;
28822;SDS011;15961;54.678;9.110;2023-02-01T06:40:07;75.93;;;11.27;;
28822;SDS011;15961;54.678;9.110;2023-02-01T06:42:33;67.75;;;8.02;;
28822;SDS011;15961;54.678;9.110;2023-02-01T06:44:59;66.82;;;8.40;;
28822;SDS011;15961;54.678;9.110;2023-02-01T06:47:24;64.65;;;8.90;;
28822;SDS011;15961;54.678;9.110;2023-02-01T06:49:50;61.67;;;10.18;;
28822;SDS011;15961;54.678;9.110;2023-02-01T06:52:15;68.22;;;9.82;;
28822;SDS011;15961;54.678;9.110;2023-02-01T06:54:41;55.00;;;8.13;;
28822;SDS011;15961;54.678;9.110;2023-02-01T06:57:07;66.97;;;9.65;;
28822;SDS011;15961;54.678;9.110;2023-02-01T06:59:32;63.08;;;10.43;;
28822;SDS011;15961;54.678;9.110;2023-02-01T07:01:58;59.08;;;8.20;;
28822;SDS011;15961;54.678;9.110;2023-02-01T07:04:23;69.18;;;11.30;;
28822;SDS011;15961;54.678;9.110;2023-02-01T07:06:49;64.00;;;8.20;;
28822;SDS011;15961;54.678;9.110;2023-02-01T07:09:14;74.18;;;8.48;;
28822;SDS011;15961;54.678;9.110;2023-02-01T07:11:40;44.20;;;7.65;;
28822;SDS011;15961;54.678;9.110;2023-02-01T07:14:11;56.63;;;7.53;;
28822;SDS011;15961;54.678;9.110;2023-02-01T07:16:37;44.20;;;6.85;;
28822;SDS011;15961;54.678;9.110;2023-02-01T07:19:03;48.33;;;7.30;;
28822;SDS011;15961;54.678;9.110;2023-02-01T07:21:29;58.70;;;8.60;;
28822;SDS011;15961;54.678;9.110;2023-02-01T07:23:54;50.53;;;7.35;;
28822;SDS011;15961;54.678;9.110;2023-02-01T07:26:20;48.40;;;6.93;;
28822;SDS011;15961;54.678;9.110;2023-02-01T07:28:46;43.25;;;8.80;;
28822;SDS011;15961;54.678;9.110;2023-02-01T07:31:16;56.13;;;8.43;;
28822;SDS011;15961;54.678;9.110;2023-02-01T07:33:45;58.67;;;9.88;;
28822;SDS011;15961;54.678;9.110;2023-02-01T07:36:12;70.20;;;8.90;;
28822;SDS011;15961;54.678;9.110;2023-02-01T07:38:39;62.40;;;8.90;;
28822;SDS011;15961;54.678;9.110;2023-02-01T07:41:06;68.63;;;9.15;;
28822;SDS011;15961;54.678;9.110;2023-02-01T07:43:33;60.35;;;6.50;;
28822;SDS011;15961;54.678;9.110;2023-02-01T07:45:59;58.50;;;8.45;;
28822;SDS011;15961;54.678;9.110;2023-02-01T07:48:26;52.10;;;8.10;;
28822;SDS011;15961;54.678;9.110;2023-02-01T07:51:02;69.00;;;9.40;;
28822;SDS011;15961;54.678;9.110;2023-02-01T07:53:33;54.53;;;8.32;;
28822;SDS011;15961;54.678;9.110;2023-02-01T07:55:59;56.72;;;7.78;;
28822;SDS011;15961;54.678;9.110;2023-02-01T07:58:26;83.90;;;10.65;;
28822;SDS011;15961;54.678;9.110;2023-02-01T08:00:52;66.43;;;7.30;;
28822;SDS011;15961;54.678;9.110;2023-02-01T08:03:37;61.33;;;9.50;;
28822;SDS011;15961;54.678;9.110;2023-02-01T08:06:02;66.97;;;7.97;;
28822;SDS011;15961;54.678;9.110;2023-02-01T08:08:28;53.92;;;8.75;;
28822;SDS011;15961;54.678;9.110;2023-02-01T08:11:01;64.97;;;7.88;;
28822;SDS011;15961;54.678;9.110;2023-02-01T08:13:27;66.65;;;8.73;;
28822;SDS011;15961;54.678;9.110;2023-02-01T08:15:57;76.32;;;8.65;;
28822;SDS011;15961;54.678;9.110;2023-02-01T08:18:24;45.25;;;5.75;;
28822;SDS011;15961;54.678;9.110;2023-02-01T08:20:49;35.83;;;5.45;;
28822;SDS011;15961;54.678;9.110;2023-02-01T08:23:15;65.28;;;21.42;;
28822;SDS011;15961;54.678;9.110;2023-02-01T08:25:42;45.08;;;9.18;;
28822;SDS011;15961;54.678;9.110;2023-02-01T08:28:08;49.10;;;7.15;;
28822;SDS011;15961;54.678;9.110;2023-02-01T08:30:34;48.78;;;10.48;;
28822;SDS011;15961;54.678;9.110;2023-02-01T08:33:02;54.17;;;8.73;;
28822;SDS011;15961;54.678;9.110;2023-02-01T08:35:28;52.13;;;8.93;;
28822;SDS011;15961;54.678;9.110;2023-02-01T08:37:53;70.82;;;8.35;;
28822;SDS011;15961;54.678;9.110;2023-02-01T08:40:19;78.03;;;9.98;;
28822;SDS011;15961;54.678;9.110;2023-02-01T08:42:46;61.47;;;9.73;;
28822;SDS011;15961;54.678;9.110;2023-02-01T08:45:19;61.63;;;9.90;;
28822;SDS011;15961;54.678;9.110;2023-02-01T08:47:46;68.45;;;10.30;;
28822;SDS011;15961;54.678;9.110;2023-02-01T08:50:12;60.75;;;9.77;;
28822;SDS011;15961;54.678;9.110;2023-02-01T08:52:38;90.75;;;17.98;;
28822;SDS011;15961;54.678;9.110;2023-02-01T08:55:04;120.40;;;22.75;;
28822;SDS011;15961;54.678;9.110;2023-02-01T08:57:30;80.15;;;19.67;;
28822;SDS011;15961;54.678;9.110;2023-02-01T08:59:56;78.45;;;17.58;;
28822;SDS011;15961;54.678;9.110;2023-02-01T09:02:21;83.75;;;19.80;;
28822;SDS011;15961;54.678;9.110;2023-02-01T09:04:47;100.85;;;26.90;;
28822;SDS011;15961;54.678;9.110;2023-02-01T09:07:12;92.18;;;21.30;;
28822;SDS011;15961;54.678;9.110;2023-02-01T09:09:38;78.30;;;12.85;;
28822;SDS011;15961;54.678;9.110;2023-02-01T09:12:04;86.60;;;14.68;;
28822;SDS011;15961;54.678;9.110;2023-02-01T09:14:29;84.10;;;14.98;;
28822;SDS011;15961;54.678;9.110;2023-02-01T09:16:55;62.10;;;11.88;;
28822;SDS011;15961;54.678;9.110;2023-02-01T09:19:21;54.22;;;9.90;;
28822;SDS011;15961;54.678;9.110;2023-02-01T09:21:46;74.57;;;9.15;;
28822;SDS011;15961;54.678;9.110;2023-02-01T09:24:12;85.53;;;12.23;;
28822;SDS011;15961;54.678;9.110;2023-02-01T09:26:38;46.90;;;9.18;;
28822;SDS011;15961;54.678;9.110;2023-02-01T09:29:04;84.75;;;9.90;;
28822;SDS011;15961;54.678;9.110;2023-02-01T09:31:35;71.65;;;9.18;;
28822;SDS011;15961;54.678;9.110;2023-02-01T09:34:00;59.15;;;10.13;;
28822;SDS011;15961;54.678;9.110;2023-02-01T09:36:26;69.28;;;8.18;;
28822;SDS011;15961;54.678;9.110;2023-02-01T09:38:52;57.88;;;9.32;;
28822;SDS011;15961;54.678;9.110;2023-02-01T09:44:19;80.88;;;9.07;;
28822;SDS011;15961;54.678;9.110;2023-02-01T09:46:59;64.68;;;10.77;;
28822;SDS011;15961;54.678;9.110;2023-02-01T09:49:27;70.28;;;11.10;;
28822;SDS011;15961;54.678;9.110;2023-02-01T09:52:07;60.17;;;8.45;;
28822;SDS011;15961;54.678;9.110;2023-02-01T09:57:13;64.43;;;8.73;;
28822;SDS011;15961;54.678;9.110;2023-02-01T09:59:46;79.03;;;9.00;;
28822;SDS011;15961;54.678;9.110;2023-02-01T10:02:16;58.70;;;7.88;;
28822;SDS011;15961;54.678;9.110;2023-02-01T10:04:47;50.17;;;8.80;;
28822;SDS011;15961;54.678;9.110;2023-02-01T10:10:15;60.55;;;9.25;;
28822;SDS011;15961;54.678;9.110;2023-02-01T10:12:59;64.57;;;8.85;;
28822;SDS011;15961;54.678;9.110;2023-02-01T10:18:42;57.80;;;9.13;;
28822;SDS011;15961;54.678;9.110;2023-02-01T10:21:51;70.63;;;18.60;;
28822;SDS011;15961;54.678;9.110;2023-02-01T10:27:14;106.72;;;22.92;;
28822;SDS011;15961;54.678;9.110;2023-02-01T10:29:45;96.97;;;21.73;;
28822;SDS011;15961;54.678;9.110;2023-02-01T10:32:19;95.18;;;19.30;;
28822;SDS011;15961;54.678;9.110;2023-02-01T10:34:49;73.13;;;11.98;;
28822;SDS011;15961;54.678;9.110;2023-02-01T10:37:27;93.63;;;12.65;;
28822;SDS011;15961;54.678;9.110;2023-02-01T10:39:58;91.83;;;14.57;;
28822;SDS011;15961;54.678;9.110;2023-02-01T10:42:38;77.43;;;11.05;;
28822;SDS011;15961;54.678;9.110;2023-02-01T10:45:05;71.63;;;12.02;;
28822;SDS011;15961;54.678;9.110;2023-02-01T10:47:31;79.35;;;12.68;;
28822;SDS011;15961;54.678;9.110;2023-02-01T10:52:36;51.17;;;7.15;;
28822;SDS011;15961;54.678;9.110;2023-02-01T10:57:55;57.97;;;7.70;;
28822;SDS011;15961;54.678;9.110;2023-02-01T11:00:34;35.20;;;4.25;;
28822;SDS011;15961;54.678;9.110;2023-02-01T11:03:19;27.23;;;5.32;;
28822;SDS011;15961;54.678;9.110;2023-02-01T11:05:51;31.85;;;5.70;;
28822;SDS011;15961;54.678;9.110;2023-02-01T11:08:16;30.42;;;4.75;;
28822;SDS011;15961;54.678;9.110;2023-02-01T11:10:44;33.10;;;5.60;;
28822;SDS011;15961;54.678;9.110;2023-02-01T11:13:13;37.97;;;5.80;;
28822;SDS011;15961;54.678;9.110;2023-02-01T11:15:42;74.18;;;8.80;;
28822;SDS011;15961;54.678;9.110;2023-02-01T11:18:20;57.47;;;9.65;;
28822;SDS011;15961;54.678;9.110;2023-02-01T11:20:52;74.63;;;7.78;;
28822;SDS011;15961;54.678;9.110;2023-02-01T11:23:20;69.07;;;6.97;;
28822;SDS011;15961;54.678;9.110;2023-02-01T11:25:49;53.60;;;6.90;;
28822;SDS011;15961;54.678;9.110;2023-02-01T11:28:20;35.85;;;6.13;;
28822;SDS011;15961;54.678;9.110;2023-02-01T11:30:48;45.95;;;7.38;;
28822;SDS011;15961;54.678;9.110;2023-02-01T11:33:18;48.05;;;6.18;;
28822;SDS011;15961;54.678;9.110;2023-02-01T11:35:49;61.67;;;8.38;;
28822;SDS011;15961;54.678;9.110;2023-02-01T11:38:21;51.90;;;6.97;;
28822;SDS011;15961;54.678;9.110;2023-02-01T11:40:52;55.90;;;6.78;;
28822;SDS011;15961;54.678;9.110;2023-02-01T11:43:25;53.72;;;8.60;;
28822;SDS011;15961;54.678;9.110;2023-02-01T11:45:56;49.92;;;7.22;;
28822;SDS011;15961;54.678;9.110;2023-02-01T11:48:24;64.07;;;7.32;;
28822;SDS011;15961;54.678;9.110;2023-02-01T11:56:25;52.55;;;7.38;;
28822;SDS011;15961;54.678;9.110;2023-02-01T11:58:59;46.38;;;6.32;;
28822;SDS011;15961;54.678;9.110;2023-02-01T12:01:46;42.17;;;6.60;;
28822;SDS011;15961;54.678;9.110;2023-02-01T12:04:47;36.80;;;4.80;;
28822;SDS011;15961;54.678;9.110;2023-02-01T12:10:01;52.72;;;6.55;;
28822;SDS011;15961;54.678;9.110;2023-02-01T12:20:51;35.50;;;5.45;;
28822;SDS011;15961;54.678;9.110;2023-02-01T12:26:05;46.97;;;10.05;;
28822;SDS011;15961;54.678;9.110;2023-02-01T12:34:42;40.78;;;6.47;;
28822;SDS011;15961;54.678;9.110;2023-02-01T12:37:18;33.40;;;4.95;;
28822;SDS011;15961;54.678;9.110;2023-02-01T12:43:01;40.10;;;4.72;;
28822;SDS011;15961;54.678;9.110;2023-02-01T12:45:32;43.53;;;4.72;;
28822;SDS011;15961;54.678;9.110;2023-02-01T12:51:04;79.53;;;13.23;;
28822;SDS011;15961;54.678;9.110;2023-02-01T12:53:46;48.50;;;10.05;;
28822;SDS011;15961;54.678;9.110;2023-02-01T12:56:23;72.75;;;18.60;;
28822;SDS011;15961;54.678;9.110;2023-02-01T12:58:52;59.20;;;13.40;;
28822;SDS011;15961;54.678;9.110;2023-02-01T13:01:40;51.22;;;8.38;;
28822;SDS011;15961;54.678;9.110;2023-02-01T13:04:18;48.13;;;7.18;;
28822;SDS011;15961;54.678;9.110;2023-02-01T13:06:56;58.88;;;8.85;;
28822;SDS011;15961;54.678;9.110;2023-02-01T13:12:33;66.88;;;10.63;;
28822;SDS011;15961;54.678;9.110;2023-02-01T13:15:16;60.47;;;10.10;;
28822;SDS011;15961;54.678;9.110;2023-02-01T13:17:46;48.05;;;8.27;;
28822;SDS011;15961;54.678;9.110;2023-02-01T13:23:01;59.72;;;10.52;;
28822;SDS011;15961;54.678;9.110;2023-02-01T13:25:49;72.05;;;12.73;;
28822;SDS011;15961;54.678;9.110;2023-02-01T13:28:24;68.43;;;8.30;;
28822;SDS011;15961;54.678;9.110;2023-02-01T13:36:17;71.90;;;10.07;;
28822;SDS011;15961;54.678;9.110;2023-02-01T13:42:02;59.30;;;7.57;;
28822;SDS011;15961;54.678;9.110;2023-02-01T13:44:39;51.40;;;8.30;;
28822;SDS011;15961;54.678;9.110;2023-02-01T13:47:25;69.50;;;8.57;;
28822;SDS011;15961;54.678;9.110;2023-02-01T13:49:54;72.32;;;9.77;;
28822;SDS011;15961;54.678;9.110;2023-02-01T13:55:33;66.57;;;9.75;;
28822;SDS011;15961;54.678;9.110;2023-02-01T13:58:04;81.47;;;11.23;;
28822;SDS011;15961;54.678;9.110;2023-02-01T14:00:35;59.78;;;10.15;;
28822;SDS011;15961;54.678;9.110;2023-02-01T14:11:06;58.42;;;9.05;;
28822;SDS011;15961;54.678;9.110;2023-02-01T14:23:44;62.22;;;10.00;;
28822;SDS011;15961;54.678;9.110;2023-02-01T14:26:16;60.88;;;9.98;;
28822;SDS011;15961;54.678;9.110;2023-02-01T14:34:13;64.97;;;13.40;;
28822;SDS011;15961;54.678;9.110;2023-02-01T14:36:54;77.95;;;11.70;;
28822;SDS011;15961;54.678;9.110;2023-02-01T14:39:28;84.88;;;9.55;;
28822;SDS011;15961;54.678;9.110;2023-02-01T14:41:57;80.20;;;11.18;;
28822;SDS011;15961;54.678;9.110;2023-02-01T14:44:27;90.18;;;11.07;;
28822;SDS011;15961;54.678;9.110;2023-02-01T14:49:59;75.18;;;11.52;;
28822;SDS011;15961;54.678;9.110;2023-02-01T14:52:35;99.45;;;13.02;;
28822;SDS011;15961;54.678;9.110;2023-02-01T14:55:10;88.25;;;11.18;;
28822;SDS011;15961;54.678;9.110;2023-02-01T14:57:46;81.95;;;10.70;;
28822;SDS011;15961;54.678;9.110;2023-02-01T15:00:17;66.65;;;9.73;;
28822;SDS011;15961;54.678;9.110;2023-02-01T15:02:51;72.38;;;10.93;;
28822;SDS011;15961;54.678;9.110;2023-02-01T15:05:23;71.95;;;10.90;;
28822;SDS011;15961;54.678;9.110;2023-02-01T15:07:50;86.40;;;11.52;;
28822;SDS011;15961;54.678;9.110;2023-02-01T15:10:17;70.30;;;10.77;;
28822;SDS011;15961;54.678;9.110;2023-02-01T15:12:45;73.90;;;11.13;;
28822;SDS011;15961;54.678;9.110;2023-02-01T15:17:59;76.55;;;10.52;;
28822;SDS011;15961;54.678;9.110;2023-02-01T15:20:31;102.00;;;13.98;;
28822;SDS011;15961;54.678;9.110;2023-02-01T15:23:04;82.72;;;13.57;;
28822;SDS011;15961;54.678;9.110;2023-02-01T15:25:40;67.50;;;10.40;;
28822;SDS011;15961;54.678;9.110;2023-02-01T15:28:11;64.82;;;11.85;;
28822;SDS011;15961;54.678;9.110;2023-02-01T15:30:39;74.13;;;11.43;;
28822;SDS011;15961;54.678;9.110;2023-02-01T15:33:06;73.47;;;8.75;;
28822;SDS011;15961;54.678;9.110;2023-02-01T15:35:48;79.93;;;9.18;;
28822;SDS011;15961;54.678;9.110;2023-02-01T15:41:13;84.22;;;10.30;;
28822;SDS011;15961;54.678;9.110;2023-02-01T15:43:44;72.32;;;11.38;;
28822;SDS011;15961;54.678;9.110;2023-02-01T15:46:17;90.18;;;12.00;;
28822;SDS011;15961;54.678;9.110;2023-02-01T15:49:02;84.55;;;10.23;;
28822;SDS011;15961;54.678;9.110;2023-02-01T15:51:30;86.65;;;10.50;;
28822;SDS011;15961;54.678;9.110;2023-02-01T15:54:06;81.30;;;11.05;;
28822;SDS011;15961;54.678;9.110;2023-02-01T15:56:38;78.80;;;11.65;;
28822;SDS011;15961;54.678;9.110;2023-02-01T15:59:11;81.22;;;10.90;;
28822;SDS011;15961;54.678;9.110;2023-02-01T16:01:40;96.20;;;11.75;;
28822;SDS011;15961;54.678;9.110;2023-02-01T16:04:21;105.13;;;11.02;;
28822;SDS011;15961;54.678;9.110;2023-02-01T16:09:17;76.50;;;10.88;;
28822;SDS011;15961;54.678;9.110;2023-02-01T16:14:21;93.00;;;12.27;;
28822;SDS011;15961;54.678;9.110;2023-02-01T16:16:48;102.72;;;12.48;;
28822;SDS011;15961;54.678;9.110;2023-02-01T16:19:14;88.47;;;15.15;;
28822;SDS011;15961;54.678;9.110;2023-02-01T16:21:39;104.38;;;14.98;;
28822;SDS011;15961;54.678;9.110;2023-02-01T16:24:05;77.32;;;10.02;;
28822;SDS011;15961;54.678;9.110;2023-02-01T16:26:31;88.97;;;12.57;;
28822;SDS011;15961;54.678;9.110;2023-02-01T16:28:58;72.32;;;10.95;;
28822;SDS011;15961;54.678;9.110;2023-02-01T16:31:27;92.43;;;14.07;;
28822;SDS011;15961;54.678;9.110;2023-02-01T16:33:55;99.35;;;10.85;;
28822;SDS011;15961;54.678;9.110;2023-02-01T16:36:21;109.18;;;11.85;;
28822;SDS011;15961;54.678;9.110;2023-02-01T16:38:47;75.35;;;9.25;;
28822;SDS011;15961;54.678;9.110;2023-02-01T16:41:14;62.65;;;9.00;;
28822;SDS011;15961;54.678;9.110;2023-02-01T16:43:42;56.72;;;9.80;;
28822;SDS011;15961;54.678;9.110;2023-02-01T16:46:17;72.57;;;10.93;;
28822;SDS011;15961;54.678;9.110;2023-02-01T16:48:48;62.08;;;7.55;;
28822;SDS011;15961;54.678;9.110;2023-02-01T16:51:22;52.28;;;7.13;;
28822;SDS011;15961;54.678;9.110;2023-02-01T16:53:50;49.00;;;7.03;;
28822;SDS011;15961;54.678;9.110;2023-02-01T16:56:17;60.97;;;9.23;;
28822;SDS011;15961;54.678;9.110;2023-02-01T16:58:48;74.40;;;10.35;;
28822;SDS011;15961;54.678;9.110;2023-02-01T17:01:15;63.10;;;10.15;;
28822;SDS011;15961;54.678;9.110;2023-02-01T17:03:42;102.90;;;13.82;;
28822;SDS011;15961;54.678;9.110;2023-02-01T17:06:11;99.68;;;11.15;;
28822;SDS011;15961;54.678;9.110;2023-02-01T17:08:43;79.63;;;10.90;;